createdAt,value
2023-02-15T00:01:35.300Z,0
2023-02-15T00:03:15.047Z,0
2023-02-15T00:04:54.805Z,0
2023-02-15T00:06:34.565Z,0
2023-02-15T00:08:14.323Z,0
2023-02-15T00:09:54.089Z,0
2023-02-15T00:11:33.859Z,0
2023-02-15T00:13:13.611Z,0
2023-02-15T00:14:53.383Z,0
2023-02-15T00:16:33.131Z,0
2023-02-15T00:18:12.886Z,0
2023-02-15T00:19:52.666Z,0
2023-02-15T00:21:32.435Z,0
2023-02-15T00:23:12.197Z,0
2023-02-15T00:24:51.958Z,0
2023-02-15T00:26:31.717Z,0
2023-02-15T00:28:11.493Z,0
2023-02-15T00:29:51.247Z,0
2023-02-15T00:31:31.024Z,0
2023-02-15T00:33:10.781Z,0
2023-02-15T00:34:50.560Z,0
2023-02-15T00:36:30.297Z,0
2023-02-15T00:38:10.057Z,0
2023-02-15T00:39:49.839Z,0
2023-02-15T00:41:29.648Z,0
2023-02-15T00:43:09.359Z,0
2023-02-15T00:44:49.113Z,0
2023-02-15T00:46:28.896Z,0
2023-02-15T00:48:08.646Z,0
2023-02-15T00:49:48.431Z,0
2023-02-15T00:51:28.192Z,0
2023-02-15T00:53:07.935Z,0
2023-02-15T00:54:47.729Z,0
2023-02-15T00:56:27.468Z,0
2023-02-15T00:58:07.258Z,0
2023-02-15T00:59:47.008Z,0
2023-02-15T01:01:26.753Z,0
2023-02-15T01:03:06.529Z,0
2023-02-15T01:04:46.341Z,0
2023-02-15T01:06:26.056Z,0
2023-02-15T01:08:05.796Z,0
2023-02-15T01:09:45.606Z,0
2023-02-15T01:11:25.511Z,0
2023-02-15T01:13:05.121Z,0
2023-02-15T01:14:44.886Z,0
2023-02-15T01:16:24.676Z,0
2023-02-15T01:19:44.261Z,0
2023-02-15T01:21:24.119Z,0
2023-02-15T01:23:03.881Z,0
2023-02-15T01:24:43.662Z,0
2023-02-15T01:26:23.381Z,0
2023-02-15T01:28:02.994Z,0
2023-02-15T01:29:42.885Z,0
2023-02-15T01:31:22.700Z,0
2023-02-15T01:33:02.434Z,0
2023-02-15T01:34:42.045Z,0
2023-02-15T01:36:21.803Z,0
2023-02-15T01:38:01.756Z,0
2023-02-15T01:39:41.503Z,0
2023-02-15T01:41:21.096Z,0
2023-02-15T01:43:00.934Z,0
2023-02-15T01:44:40.816Z,0
2023-02-15T01:46:20.382Z,0
2023-02-15T01:48:00.179Z,0
2023-02-15T01:49:40.079Z,0
2023-02-15T01:51:19.863Z,0
2023-02-15T01:52:59.443Z,0
2023-02-15T01:54:39.197Z,0
2023-02-15T01:56:19.159Z,0
2023-02-15T01:57:58.777Z,0
2023-02-15T01:59:38.562Z,0
2023-02-15T02:01:18.379Z,0
2023-02-15T02:02:58.134Z,0
2023-02-15T02:04:37.954Z,0
2023-02-15T02:06:17.703Z,0
2023-02-15T02:07:57.420Z,0
2023-02-15T02:09:37.187Z,0
2023-02-15T02:11:16.934Z,0
2023-02-15T02:12:56.673Z,0
2023-02-15T02:14:36.399Z,0
2023-02-15T02:16:16.209Z,0
2023-02-15T02:17:55.888Z,0
2023-02-15T02:19:35.735Z,0
2023-02-15T02:21:15.499Z,0
2023-02-15T02:22:55.282Z,0
2023-02-15T02:24:35.035Z,0
2023-02-15T02:26:14.719Z,0
2023-02-15T02:27:54.481Z,0
2023-02-15T02:29:34.237Z,0
2023-02-15T02:31:14.012Z,0
2023-02-15T02:32:53.845Z,0
2023-02-15T02:34:33.585Z,0
2023-02-15T02:36:13.365Z,0
2023-02-15T02:37:53.102Z,0
2023-02-15T02:39:32.831Z,0
2023-02-15T02:41:12.603Z,0
2023-02-15T02:42:52.380Z,0
2023-02-15T02:44:32.167Z,0
2023-02-15T02:46:11.885Z,0
2023-02-15T02:47:51.675Z,0
2023-02-15T02:49:31.417Z,0
2023-02-15T02:51:11.215Z,0
2023-02-15T02:52:50.945Z,0
2023-02-15T02:54:30.790Z,0
2023-02-15T02:56:10.455Z,0
2023-02-15T02:57:50.233Z,0
2023-02-15T02:59:30.018Z,0
2023-02-15T03:01:09.816Z,0
2023-02-15T03:02:49.528Z,0
2023-02-15T03:04:29.283Z,0
2023-02-15T03:06:09.066Z,0
2023-02-15T03:07:48.810Z,0
2023-02-15T03:09:28.570Z,0
2023-02-15T03:11:08.376Z,0
2023-02-15T03:12:48.184Z,0
2023-02-15T03:14:27.877Z,0
2023-02-15T03:16:07.636Z,0
2023-02-15T03:17:47.405Z,0
2023-02-15T03:19:27.150Z,0
2023-02-15T03:21:06.934Z,0
2023-02-15T03:22:46.704Z,0
2023-02-15T03:24:26.511Z,0
2023-02-15T03:26:06.365Z,0
2023-02-15T03:27:46.003Z,0
2023-02-15T03:29:25.799Z,0
2023-02-15T03:32:45.275Z,0
2023-02-15T03:34:25.027Z,0
2023-02-15T03:36:04.799Z,0
2023-02-15T03:37:44.565Z,0
2023-02-15T03:39:24.387Z,0
2023-02-15T03:41:04.106Z,0
2023-02-15T03:42:43.878Z,0
2023-02-15T03:44:23.632Z,0
2023-02-15T03:46:03.396Z,0
2023-02-15T03:47:43.201Z,0
2023-02-15T03:49:22.918Z,0
2023-02-15T03:51:02.680Z,0
2023-02-15T03:52:42.436Z,0
2023-02-15T03:54:22.203Z,0
2023-02-15T03:56:01.981Z,0
2023-02-15T03:57:41.812Z,0
2023-02-15T03:59:21.487Z,0
2023-02-15T04:01:01.253Z,0
2023-02-15T04:02:41.008Z,0
2023-02-15T04:04:20.789Z,0
2023-02-15T04:06:00.562Z,0
2023-02-15T04:07:40.319Z,0
2023-02-15T04:09:20.068Z,0
2023-02-15T04:10:59.835Z,0
2023-02-15T04:12:39.660Z,0
2023-02-15T04:14:19.388Z,0
2023-02-15T04:15:59.130Z,0
2023-02-15T04:17:38.902Z,0
2023-02-15T04:19:18.698Z,0
2023-02-15T04:20:58.410Z,0
2023-02-15T04:22:38.276Z,0
2023-02-15T04:24:17.935Z,0
2023-02-15T04:25:57.709Z,0
2023-02-15T04:27:37.532Z,0
2023-02-15T04:29:17.226Z,0
2023-02-15T04:30:57.062Z,0
2023-02-15T04:32:36.765Z,0
2023-02-15T04:34:16.522Z,0
2023-02-15T04:35:56.293Z,0
2023-02-15T04:37:36.050Z,0
2023-02-15T04:39:15.816Z,0
2023-02-15T04:40:55.569Z,0
2023-02-15T04:42:35.364Z,0
2023-02-15T04:44:15.098Z,0
2023-02-15T04:45:54.860Z,0
2023-02-15T04:47:34.634Z,0
2023-02-15T04:49:14.405Z,0
2023-02-15T04:50:54.154Z,0
2023-02-15T04:52:33.955Z,0
2023-02-15T04:54:13.680Z,0
2023-02-15T04:55:53.451Z,0
2023-02-15T04:57:33.241Z,0
2023-02-15T04:59:13.029Z,0
2023-02-15T05:00:52.740Z,0
2023-02-15T05:02:32.565Z,0
2023-02-15T05:04:12.291Z,0
2023-02-15T05:05:52.050Z,0
2023-02-15T05:07:31.812Z,0
2023-02-15T05:09:11.597Z,0
2023-02-15T05:10:51.360Z,0
2023-02-15T05:12:31.202Z,0
2023-02-15T05:14:10.855Z,0
2023-02-15T05:15:50.665Z,0
2023-02-15T05:17:30.379Z,0
2023-02-15T05:19:10.131Z,0
2023-02-15T05:20:49.902Z,0
2023-02-15T05:22:29.697Z,0
2023-02-15T05:24:09.436Z,0
2023-02-15T05:25:49.192Z,0
2023-02-15T05:27:28.965Z,0
2023-02-15T05:29:08.742Z,0
2023-02-15T05:30:48.487Z,0
2023-02-15T05:32:28.253Z,0
2023-02-15T05:34:08.021Z,0
2023-02-15T05:35:47.793Z,0
2023-02-15T05:37:27.548Z,0
2023-02-15T05:39:07.310Z,0
2023-02-15T05:40:47.088Z,0
2023-02-15T05:42:26.855Z,0
2023-02-15T05:44:06.600Z,0
2023-02-15T05:45:46.372Z,0
2023-02-15T05:47:26.138Z,0
2023-02-15T05:49:05.941Z,0
2023-02-15T05:50:45.659Z,0
2023-02-15T05:52:25.452Z,0
2023-02-15T05:54:05.184Z,0
2023-02-15T05:55:44.961Z,0
2023-02-15T05:57:24.755Z,0
2023-02-15T05:59:04.498Z,0
2023-02-15T06:00:44.246Z,0
2023-02-15T06:02:24.045Z,0
2023-02-15T06:04:03.778Z,0
2023-02-15T06:05:43.627Z,0
2023-02-15T06:07:23.290Z,0
2023-02-15T06:09:03.173Z,0
2023-02-15T06:10:42.903Z,0
2023-02-15T06:12:22.610Z,0
2023-02-15T06:14:02.374Z,0
2023-02-15T06:15:42.120Z,0
2023-02-15T06:17:21.901Z,0
2023-02-15T06:19:01.665Z,0
2023-02-15T06:20:41.489Z,0
2023-02-15T06:22:21.166Z,0
2023-02-15T06:24:00.940Z,0
2023-02-15T06:25:40.709Z,0
2023-02-15T06:27:20.476Z,0
2023-02-15T06:29:00.233Z,0
2023-02-15T06:30:40.048Z,0
2023-02-15T06:32:19.750Z,0
2023-02-15T06:33:59.537Z,0
2023-02-15T06:35:39.282Z,0
2023-02-15T06:37:19.124Z,0
2023-02-15T06:38:58.836Z,0
2023-02-15T06:40:38.578Z,0
2023-02-15T06:42:18.566Z,0
2023-02-15T06:43:58.281Z,0
2023-02-15T06:45:38.004Z,0
2023-02-15T06:47:17.645Z,0
2023-02-15T06:48:57.412Z,0
2023-02-15T06:50:37.238Z,0
2023-02-15T06:52:16.942Z,0
2023-02-15T06:53:56.752Z,0
2023-02-15T06:55:36.557Z,0
2023-02-15T06:57:16.284Z,0
2023-02-15T06:58:56.013Z,0
2023-02-15T07:00:35.787Z,0.01
2023-02-15T07:02:15.513Z,0.02
2023-02-15T07:03:55.275Z,0.02
2023-02-15T07:05:35.101Z,0.03
2023-02-15T07:07:14.795Z,0.03
2023-02-15T07:08:54.573Z,0.03
2023-02-15T07:10:34.328Z,0.04
2023-02-15T07:12:14.089Z,0.03
2023-02-15T07:13:53.842Z,0.05
2023-02-15T07:15:33.620Z,0.05
2023-02-15T07:17:13.404Z,0.06
2023-02-15T07:18:53.131Z,0.06
2023-02-15T07:20:32.896Z,0.06
2023-02-15T07:22:12.672Z,0.05
2023-02-15T07:23:52.428Z,0.06
2023-02-15T07:25:32.247Z,0.07
2023-02-15T07:27:11.944Z,0.07
2023-02-15T07:28:51.722Z,0.08
2023-02-15T07:30:31.613Z,0.09
2023-02-15T07:32:11.264Z,0.09
2023-02-15T07:33:51.051Z,0.09
2023-02-15T07:35:30.794Z,0.09
2023-02-15T07:37:10.542Z,0.1
2023-02-15T07:38:50.300Z,0.11
2023-02-15T07:40:30.107Z,0.13
2023-02-15T07:42:09.834Z,0.12
2023-02-15T07:43:49.647Z,0.12
2023-02-15T07:45:29.369Z,0.13
2023-02-15T07:47:09.126Z,0.27
2023-02-15T07:48:48.897Z,0.13
2023-02-15T07:50:28.824Z,0.13
2023-02-15T07:52:08.426Z,0.14
2023-02-15T07:53:48.186Z,0.14
2023-02-15T07:55:28.005Z,0.14
2023-02-15T07:57:07.836Z,0.15
2023-02-15T07:58:47.485Z,0.16
2023-02-15T08:00:27.353Z,0.15
2023-02-15T08:02:07.079Z,0.15
2023-02-15T08:03:46.784Z,0.16
2023-02-15T08:05:26.531Z,0.17
2023-02-15T08:07:06.301Z,0.18
2023-02-15T08:08:46.072Z,0.18
2023-02-15T08:10:25.832Z,0.2
2023-02-15T08:12:05.582Z,0.19
2023-02-15T08:13:45.477Z,0.2
2023-02-15T08:15:25.121Z,0.21
2023-02-15T08:17:04.941Z,0.21
2023-02-15T08:18:44.653Z,0.21
2023-02-15T08:20:24.448Z,0.21
2023-02-15T08:22:04.182Z,0.21
2023-02-15T08:23:43.969Z,0.2
2023-02-15T08:25:23.731Z,0.21
2023-02-15T08:27:03.497Z,0.21
2023-02-15T08:28:43.273Z,0.22
2023-02-15T08:30:23.013Z,0.23
2023-02-15T08:32:02.875Z,0.29
2023-02-15T08:33:42.572Z,0.3
2023-02-15T08:35:22.333Z,0.31
2023-02-15T08:37:02.136Z,0.3
2023-02-15T08:38:41.888Z,0.32
2023-02-15T08:40:21.689Z,0.34
2023-02-15T08:42:01.391Z,0.21
2023-02-15T08:43:41.144Z,0.32
2023-02-15T08:45:20.908Z,0.32
2023-02-15T08:47:00.688Z,0.31
2023-02-15T08:48:40.525Z,0.31
2023-02-15T08:50:20.211Z,0.31
2023-02-15T08:52:00.024Z,0.3
2023-02-15T08:53:39.742Z,0.29
2023-02-15T08:55:19.515Z,0.29
2023-02-15T08:56:59.410Z,0.28
2023-02-15T08:58:39.034Z,0.28
2023-02-15T09:01:58.569Z,0.28
2023-02-15T09:03:38.354Z,0.26
2023-02-15T09:05:18.152Z,0.27
2023-02-15T09:06:58.021Z,0.26
2023-02-15T09:08:37.647Z,0.26
2023-02-15T09:10:17.433Z,0.26
2023-02-15T09:11:57.180Z,0.26
2023-02-15T09:13:36.975Z,0.24
2023-02-15T09:15:16.717Z,0.24
2023-02-15T09:16:56.482Z,0.24
2023-02-15T09:18:36.237Z,0.24
2023-02-15T09:20:16.083Z,0.23
2023-02-15T09:21:55.783Z,0.22
2023-02-15T09:23:35.528Z,0.23
2023-02-15T09:25:15.283Z,0.23
2023-02-15T09:26:55.066Z,0.22
2023-02-15T09:28:34.819Z,0.22
2023-02-15T09:30:14.593Z,0.21
2023-02-15T09:31:54.457Z,0.22
2023-02-15T09:33:34.086Z,0.22
2023-02-15T09:35:13.892Z,0.21
2023-02-15T09:36:53.685Z,0.21
2023-02-15T09:38:33.408Z,0.2
2023-02-15T09:40:13.233Z,0.2
2023-02-15T09:41:52.950Z,0.19
2023-02-15T09:43:32.694Z,0.19
2023-02-15T09:45:12.500Z,0.19
2023-02-15T09:46:52.283Z,0.19
2023-02-15T09:48:31.980Z,0.19
2023-02-15T09:50:11.768Z,0.18
2023-02-15T09:51:51.512Z,0.19
2023-02-15T09:53:31.313Z,0.18
2023-02-15T09:55:11.033Z,0.19
2023-02-15T09:56:50.794Z,0.17
2023-02-15T09:58:30.579Z,0.18
2023-02-15T10:00:10.333Z,0.18
2023-02-15T10:01:50.105Z,0.18
2023-02-15T10:03:29.855Z,0.17
2023-02-15T10:05:09.613Z,0.17
2023-02-15T10:06:49.417Z,0.18
2023-02-15T10:08:29.182Z,0.17
2023-02-15T10:10:08.921Z,0.17
2023-02-15T10:11:48.687Z,0.18
2023-02-15T10:13:28.450Z,0.18
2023-02-15T10:15:08.232Z,0.16
2023-02-15T10:16:47.966Z,0.17
2023-02-15T10:18:27.744Z,0.16
2023-02-15T10:21:47.263Z,0.16
2023-02-15T10:23:27.051Z,0.16
2023-02-15T10:25:06.843Z,0.16
2023-02-15T10:26:46.561Z,0.15
2023-02-15T10:28:26.335Z,0.16
2023-02-15T10:30:06.074Z,0.16
2023-02-15T10:31:46.064Z,0.15
2023-02-15T10:33:25.657Z,0.18
2023-02-15T10:35:05.386Z,0.17
2023-02-15T10:36:45.148Z,0.15
2023-02-15T10:38:25.080Z,0.15
2023-02-15T10:40:04.675Z,0.17
2023-02-15T10:41:44.467Z,0.18
2023-02-15T10:43:24.277Z,0.15
2023-02-15T10:45:03.986Z,0.16
2023-02-15T10:46:43.709Z,0.16
2023-02-15T10:48:23.473Z,0.16
2023-02-15T10:50:03.235Z,0.15
2023-02-15T10:51:43.005Z,0.15
2023-02-15T10:53:22.789Z,0.15
2023-02-15T10:55:02.554Z,0.15
2023-02-15T10:56:42.306Z,0.16
2023-02-15T10:58:22.056Z,0.15
2023-02-15T11:00:01.840Z,0.16
2023-02-15T11:01:41.661Z,0.15
2023-02-15T11:03:21.381Z,0.16
2023-02-15T11:05:01.177Z,0.16
2023-02-15T11:06:40.982Z,0.16
2023-02-15T11:10:00.454Z,0.15
2023-02-15T11:13:20.009Z,0.16
2023-02-15T11:14:59.692Z,0.15
2023-02-15T11:16:39.457Z,0.15
2023-02-15T11:18:19.245Z,0.15
2023-02-15T11:19:59.002Z,0.16
2023-02-15T11:21:38.805Z,0.15
2023-02-15T11:23:18.514Z,0.15
2023-02-15T11:24:58.329Z,0.15
2023-02-15T11:26:38.114Z,0.15
2023-02-15T11:28:17.822Z,0.15
2023-02-15T11:33:17.121Z,0.15
2023-02-15T11:34:56.867Z,0.14
2023-02-15T11:36:36.629Z,0.16
2023-02-15T11:39:56.152Z,0.14
2023-02-15T11:41:35.907Z,0.15
2023-02-15T11:43:15.703Z,0.16
2023-02-15T11:44:55.535Z,0.16
2023-02-15T11:48:14.978Z,0.17
2023-02-15T11:49:54.775Z,0.15
2023-02-15T11:51:34.546Z,0.15
2023-02-15T11:53:14.268Z,0.16
2023-02-15T11:54:54.032Z,0.16
2023-02-15T11:56:33.806Z,0.17
2023-02-15T11:58:13.571Z,0.17
2023-02-15T11:59:53.315Z,0.17
2023-02-15T12:01:33.090Z,0.17
2023-02-15T12:03:12.862Z,0.16
2023-02-15T12:04:52.622Z,0.16
2023-02-15T12:08:12.186Z,0.18
2023-02-15T12:09:51.904Z,0.18
2023-02-15T12:11:31.688Z,0.15
2023-02-15T12:13:11.465Z,0.14
2023-02-15T12:14:51.210Z,0.18
2023-02-15T12:16:31.024Z,0.16
2023-02-15T12:18:10.733Z,0.18
2023-02-15T12:19:50.545Z,0.16
2023-02-15T12:21:30.264Z,0.19
2023-02-15T12:23:10.016Z,0.17
2023-02-15T12:24:49.801Z,0.16
2023-02-15T12:26:29.561Z,0.19
2023-02-15T12:28:09.334Z,0.18
2023-02-15T12:29:49.164Z,0.15
2023-02-15T12:31:28.825Z,0.19
2023-02-15T12:33:08.593Z,0.18
2023-02-15T12:34:48.354Z,0.16
2023-02-15T12:36:28.182Z,0.17
2023-02-15T12:38:07.899Z,0.19
2023-02-15T12:39:47.719Z,0.15
2023-02-15T12:41:27.416Z,0.17
2023-02-15T12:43:07.202Z,0.16
2023-02-15T12:44:47.097Z,0.17
2023-02-15T12:46:26.743Z,0.18
2023-02-15T12:48:06.550Z,0.18
2023-02-15T12:49:46.331Z,0.16
2023-02-15T12:51:26.138Z,0.2
2023-02-15T12:53:05.774Z,0.18
2023-02-15T12:54:45.572Z,0.18
2023-02-15T12:56:25.339Z,0.19
2023-02-15T12:58:05.063Z,0.17
2023-02-15T12:59:44.829Z,0.19
2023-02-15T13:01:24.686Z,0.19
2023-02-15T13:03:04.346Z,0.19
2023-02-15T13:04:44.107Z,0.19
2023-02-15T13:06:23.900Z,0.18
2023-02-15T13:08:03.652Z,0.18
2023-02-15T13:09:43.402Z,0.16
2023-02-15T13:11:23.294Z,0.17
2023-02-15T13:13:03.130Z,0.17
2023-02-15T13:14:42.858Z,0.17
2023-02-15T13:16:22.525Z,0.18
2023-02-15T13:18:02.270Z,0.17
2023-02-15T13:19:42.140Z,0.19
2023-02-15T13:21:21.881Z,0.18
2023-02-15T13:23:01.571Z,0.18
2023-02-15T13:24:41.450Z,0.18
2023-02-15T13:26:21.052Z,0.18
2023-02-15T13:28:00.831Z,0.18
2023-02-15T13:29:40.646Z,0.18
2023-02-15T13:31:20.343Z,0.17
2023-02-15T13:33:00.169Z,0.17
2023-02-15T13:34:39.866Z,0.18
2023-02-15T13:36:19.626Z,0.17
2023-02-15T13:37:59.401Z,0.18
2023-02-15T13:39:39.225Z,0.17
2023-02-15T13:41:18.941Z,0.18
2023-02-15T13:42:58.698Z,0.19
2023-02-15T13:44:38.518Z,0.18
2023-02-15T13:46:18.238Z,0.18
2023-02-15T13:47:58.005Z,0.18
2023-02-15T13:49:37.740Z,0.18
2023-02-15T13:51:17.522Z,0.19
2023-02-15T13:52:57.334Z,0.18
2023-02-15T13:54:37.119Z,0.17
2023-02-15T13:56:16.897Z,0.18
2023-02-15T13:57:56.566Z,0.17
2023-02-15T13:59:36.324Z,0.18
2023-02-15T14:01:16.103Z,0.17
2023-02-15T14:02:55.871Z,0.18
2023-02-15T14:04:35.762Z,0.18
2023-02-15T14:06:15.569Z,0.19
2023-02-15T14:07:55.140Z,0.18
2023-02-15T14:09:35.038Z,0.18
2023-02-15T14:11:14.885Z,0.18
2023-02-15T14:12:54.566Z,0.19
2023-02-15T14:14:34.202Z,0.18
2023-02-15T14:16:13.962Z,0.18
2023-02-15T14:17:53.764Z,0.18
2023-02-15T14:19:33.476Z,0.18
2023-02-15T14:21:13.485Z,0.18
2023-02-15T14:22:53.038Z,0.18
2023-02-15T14:24:32.842Z,0.18
2023-02-15T14:26:12.598Z,0.19
2023-02-15T14:27:52.364Z,0.18
2023-02-15T14:29:32.121Z,0.18
2023-02-15T14:31:11.963Z,0.18
2023-02-15T14:32:51.648Z,0.18
2023-02-15T14:34:31.477Z,0.18
2023-02-15T14:36:11.189Z,0.18
2023-02-15T14:37:50.977Z,0.18
2023-02-15T14:39:30.639Z,0.18
2023-02-15T14:41:10.575Z,0.18
2023-02-15T14:42:50.178Z,0.18
2023-02-15T14:44:29.968Z,0.18
2023-02-15T14:46:09.706Z,0.18
2023-02-15T14:47:49.477Z,0.17
2023-02-15T14:49:29.248Z,0.18
2023-02-15T14:51:09.181Z,0.18
2023-02-15T14:52:48.942Z,0.18
2023-02-15T14:54:28.662Z,0.19
2023-02-15T14:56:08.504Z,0.18
2023-02-15T14:57:48.059Z,0.18
2023-02-15T14:59:27.817Z,0.19
2023-02-15T15:01:07.576Z,0.17
2023-02-15T15:02:47.351Z,0.18
2023-02-15T15:04:27.128Z,0.17
2023-02-15T15:06:06.925Z,0.17
2023-02-15T15:07:46.861Z,0.19
2023-02-15T15:09:26.468Z,0.18
2023-02-15T15:11:06.252Z,0.18
2023-02-15T15:12:46.048Z,0.19
2023-02-15T15:14:25.691Z,0.18
2023-02-15T15:16:05.623Z,0.18
2023-02-15T15:17:45.242Z,0.19
2023-02-15T15:19:24.989Z,0.19
2023-02-15T15:21:04.771Z,0.18
2023-02-15T15:22:44.635Z,0.18
2023-02-15T15:24:24.275Z,0.18
2023-02-15T15:26:04.229Z,0.18
2023-02-15T15:27:43.799Z,0.19
2023-02-15T15:29:23.632Z,0.17
2023-02-15T15:31:03.438Z,0.18
2023-02-15T15:32:43.103Z,0.17
2023-02-15T15:34:22.887Z,0.18
2023-02-15T15:36:02.632Z,0.17
2023-02-15T15:37:42.395Z,0.17
2023-02-15T15:39:22.166Z,0.18
2023-02-15T15:41:02.042Z,0.17
2023-02-15T15:42:41.707Z,0.17
2023-02-15T15:44:21.518Z,0.17
2023-02-15T15:46:01.208Z,0.18
2023-02-15T15:47:41.135Z,0.18
2023-02-15T15:49:20.869Z,0.18
2023-02-15T15:51:00.518Z,0.17
2023-02-15T15:52:40.373Z,0.17
2023-02-15T15:54:20.088Z,0.14
2023-02-15T15:55:59.792Z,0.07
2023-02-15T15:57:39.561Z,0.08
2023-02-15T15:59:19.326Z,0.06
2023-02-15T16:00:59.090Z,0.05
2023-02-15T16:02:38.862Z,0.04
2023-02-15T16:04:18.621Z,0.03
2023-02-15T16:05:58.389Z,0.03
2023-02-15T16:07:38.192Z,0.02
2023-02-15T16:09:17.903Z,0.03
2023-02-15T16:10:57.691Z,0.02
2023-02-15T16:12:37.451Z,0
2023-02-15T16:14:17.189Z,0
2023-02-15T16:15:56.956Z,0
2023-02-15T16:17:36.716Z,0
2023-02-15T16:19:16.529Z,0
2023-02-15T16:20:56.282Z,0
2023-02-15T16:22:36.016Z,0
2023-02-15T16:24:16.006Z,0
2023-02-15T16:25:55.559Z,0
2023-02-15T16:27:35.291Z,0
2023-02-15T16:29:15.060Z,0
2023-02-15T16:30:54.857Z,0
2023-02-15T16:32:34.589Z,0
2023-02-15T16:34:14.360Z,0
2023-02-15T16:35:54.163Z,0
2023-02-15T16:37:34.016Z,0
2023-02-15T16:39:13.690Z,0
2023-02-15T16:40:53.410Z,0
2023-02-15T16:42:33.233Z,0
2023-02-15T16:44:12.950Z,0
2023-02-15T16:45:52.740Z,0
2023-02-15T16:47:32.523Z,0
2023-02-15T16:49:12.327Z,0
2023-02-15T16:50:52.058Z,0
2023-02-15T16:52:31.764Z,0
2023-02-15T16:54:11.524Z,0
2023-02-15T16:55:51.288Z,0
2023-02-15T16:57:31.046Z,0
2023-02-15T16:59:10.808Z,0
2023-02-15T17:00:50.614Z,0
2023-02-15T17:02:30.340Z,0
2023-02-15T17:04:10.109Z,0
2023-02-15T17:05:49.870Z,0
2023-02-15T17:07:29.656Z,0
2023-02-15T17:09:09.473Z,0
2023-02-15T17:10:49.186Z,0
2023-02-15T17:12:28.932Z,0
2023-02-15T17:14:08.754Z,0
2023-02-15T17:15:48.449Z,0
2023-02-15T17:17:28.236Z,0
2023-02-15T17:19:07.993Z,0
2023-02-15T17:20:47.735Z,0
2023-02-15T17:22:27.683Z,0
2023-02-15T17:24:07.309Z,0
2023-02-15T17:25:47.040Z,0
2023-02-15T17:27:26.795Z,0
2023-02-15T17:29:06.568Z,0
2023-02-15T17:30:46.342Z,0
2023-02-15T17:32:26.136Z,0
2023-02-15T17:34:05.858Z,0
2023-02-15T17:35:45.630Z,0
2023-02-15T17:37:25.386Z,0
2023-02-15T17:39:05.158Z,0
2023-02-15T17:40:45.057Z,0
2023-02-15T17:42:24.806Z,0
2023-02-15T17:44:04.620Z,0
2023-02-15T17:45:44.333Z,0
2023-02-15T17:47:24.129Z,0
2023-02-15T17:49:03.923Z,0
2023-02-15T17:50:43.697Z,0
2023-02-15T17:52:23.418Z,0
2023-02-15T17:54:03.166Z,0
2023-02-15T17:55:42.938Z,0
2023-02-15T17:57:22.684Z,0
2023-02-15T17:59:02.597Z,0
2023-02-15T18:00:42.217Z,0
2023-02-15T18:02:22.005Z,0
2023-02-15T18:04:01.744Z,0
2023-02-15T18:05:41.529Z,0
2023-02-15T18:07:21.265Z,0
2023-02-15T18:09:01.062Z,0
2023-02-15T18:10:40.797Z,0
2023-02-15T18:12:20.559Z,0
2023-02-15T18:14:00.395Z,0
2023-02-15T18:15:40.089Z,0
2023-02-15T18:17:19.867Z,0
2023-02-15T18:18:59.621Z,0
2023-02-15T18:20:39.465Z,0
2023-02-15T18:22:19.256Z,0
2023-02-15T18:23:58.942Z,0
2023-02-15T18:25:38.730Z,0
2023-02-15T18:27:18.444Z,0
2023-02-15T18:28:58.233Z,0
2023-02-15T18:30:37.955Z,0
2023-02-15T18:32:17.737Z,0
2023-02-15T18:33:57.488Z,0
2023-02-15T18:35:37.319Z,0
2023-02-15T18:37:17.037Z,0
2023-02-15T18:38:56.785Z,0
2023-02-15T18:40:36.622Z,0
2023-02-15T18:42:16.356Z,0
2023-02-15T18:43:56.152Z,0
2023-02-15T18:45:35.893Z,0
2023-02-15T18:47:15.672Z,0
2023-02-15T18:48:55.471Z,0
2023-02-15T18:50:35.177Z,0
2023-02-15T18:52:14.943Z,0
2023-02-15T18:53:54.723Z,0
2023-02-15T18:55:34.489Z,0
2023-02-15T18:57:14.220Z,0
2023-02-15T18:58:54.018Z,0
2023-02-15T19:00:33.762Z,0
2023-02-15T19:02:13.552Z,0
2023-02-15T19:03:53.334Z,0
2023-02-15T19:05:33.040Z,0
2023-02-15T19:07:12.963Z,0
2023-02-15T19:08:52.650Z,0
2023-02-15T19:10:32.409Z,0
2023-02-15T19:12:12.302Z,0
2023-02-15T19:13:51.915Z,0
2023-02-15T19:15:31.717Z,0
2023-02-15T19:17:11.453Z,0
2023-02-15T19:20:31.009Z,0
2023-02-15T19:22:10.756Z,0
2023-02-15T19:23:50.513Z,0
2023-02-15T19:25:30.278Z,0
2023-02-15T19:27:10.040Z,0
2023-02-15T19:28:49.805Z,0
2023-02-15T19:30:29.585Z,0
2023-02-15T19:32:09.338Z,0
2023-02-15T19:33:49.188Z,0
2023-02-15T19:35:28.906Z,0
2023-02-15T19:37:08.706Z,0
2023-02-15T19:38:48.438Z,0
2023-02-15T19:40:28.204Z,0
2023-02-15T19:42:07.984Z,0
2023-02-15T19:43:47.767Z,0
2023-02-15T19:45:27.504Z,0
2023-02-15T19:47:07.275Z,0
2023-02-15T19:48:47.024Z,0
2023-02-15T19:50:26.798Z,0
2023-02-15T19:52:06.593Z,0
2023-02-15T19:53:46.340Z,0
2023-02-15T19:55:26.129Z,0
2023-02-15T19:57:05.850Z,0
2023-02-15T19:58:45.623Z,0
2023-02-15T20:00:25.379Z,0
2023-02-15T20:02:05.157Z,0
2023-02-15T20:03:44.953Z,0
2023-02-15T20:05:24.653Z,0
2023-02-15T20:07:04.490Z,0
2023-02-15T20:08:44.337Z,0
2023-02-15T20:10:24.120Z,0
2023-02-15T20:12:03.868Z,0
2023-02-15T20:13:43.647Z,0
2023-02-15T20:15:23.394Z,0
2023-02-15T20:17:03.164Z,0
2023-02-15T20:18:42.918Z,0
2023-02-15T20:20:22.683Z,0
2023-02-15T20:22:02.452Z,0
2023-02-15T20:23:42.269Z,0
2023-02-15T20:25:21.983Z,0
2023-02-15T20:27:01.759Z,0
2023-02-15T20:28:41.533Z,0
2023-02-15T20:30:21.279Z,0
2023-02-15T20:32:01.027Z,0
2023-02-15T20:33:40.856Z,0
2023-02-15T20:35:20.552Z,0
2023-02-15T20:37:00.388Z,0
2023-02-15T20:38:40.145Z,0
2023-02-15T20:40:19.864Z,0
2023-02-15T20:41:59.625Z,0
2023-02-15T20:43:39.398Z,0
2023-02-15T20:45:19.303Z,0
2023-02-15T20:46:58.941Z,0
2023-02-15T20:48:38.769Z,0
2023-02-15T20:50:18.452Z,0
2023-02-15T20:51:58.282Z,0
2023-02-15T20:53:37.952Z,0
2023-02-15T20:56:57.495Z,0
2023-02-15T20:58:37.307Z,0
2023-02-15T21:00:17.012Z,0
2023-02-15T21:01:56.783Z,0
2023-02-15T21:03:36.537Z,0
2023-02-15T21:05:16.359Z,0
2023-02-15T21:08:35.837Z,0
2023-02-15T21:10:15.669Z,0
2023-02-15T21:11:55.388Z,0
2023-02-15T21:13:35.126Z,0
2023-02-15T21:15:15.094Z,0
2023-02-15T21:16:54.853Z,0
2023-02-15T21:18:34.665Z,0
2023-02-15T21:20:14.383Z,0
2023-02-15T21:21:54.114Z,0
2023-02-15T21:23:33.847Z,0
2023-02-15T21:25:13.610Z,0
2023-02-15T21:26:53.369Z,0
2023-02-15T21:28:33.153Z,0
2023-02-15T21:30:12.908Z,0
2023-02-15T21:33:32.463Z,0
2023-02-15T21:35:12.197Z,0
2023-02-15T21:36:52.039Z,0
2023-02-15T21:38:31.716Z,0
2023-02-15T21:40:11.501Z,0
2023-02-15T21:41:51.239Z,0
2023-02-15T21:43:31.003Z,0
2023-02-15T21:45:10.865Z,0
2023-02-15T21:46:50.555Z,0
2023-02-15T21:48:30.422Z,0
2023-02-15T21:50:10.073Z,0
2023-02-15T21:51:49.910Z,0
2023-02-15T21:53:29.600Z,0
2023-02-15T21:55:09.374Z,0
2023-02-15T21:56:49.125Z,0
2023-02-15T21:58:28.891Z,0
2023-02-15T22:00:08.661Z,0
2023-02-15T22:01:48.423Z,0
2023-02-15T22:03:28.274Z,0
2023-02-15T22:05:07.988Z,0
2023-02-15T22:06:47.699Z,0
2023-02-15T22:08:27.522Z,0
2023-02-15T22:10:07.256Z,0
2023-02-15T22:11:47.003Z,0
2023-02-15T22:13:26.763Z,0
2023-02-15T22:15:06.541Z,0
2023-02-15T22:16:46.295Z,0
2023-02-15T22:18:26.117Z,0
2023-02-15T22:20:05.880Z,0
2023-02-15T22:21:45.638Z,0
2023-02-15T22:23:25.388Z,0
2023-02-15T22:25:05.165Z,0
2023-02-15T22:26:44.925Z,0
2023-02-15T22:28:24.696Z,0
2023-02-15T22:30:04.460Z,0
2023-02-15T22:31:44.215Z,0
2023-02-15T22:33:23.983Z,0
2023-02-15T22:35:03.820Z,0
2023-02-15T22:36:43.547Z,0
2023-02-15T22:38:23.279Z,0
2023-02-15T22:40:03.043Z,0
2023-02-15T22:41:42.796Z,0
2023-02-15T22:43:22.636Z,0
2023-02-15T22:45:02.444Z,0
2023-02-15T22:46:42.123Z,0
2023-02-15T22:48:21.932Z,0
2023-02-15T22:50:01.668Z,0
2023-02-15T22:51:41.444Z,0
2023-02-15T22:53:21.224Z,0
2023-02-15T22:55:00.997Z,0
2023-02-15T22:56:40.775Z,0
2023-02-15T22:58:20.549Z,0
2023-02-15T23:00:00.298Z,0
2023-02-15T23:01:40.014Z,0
2023-02-15T23:03:19.777Z,0
2023-02-15T23:06:39.344Z,0
2023-02-15T23:09:59.201Z,0
2023-02-15T23:11:38.594Z,0
2023-02-15T23:13:18.495Z,0
2023-02-15T23:14:58.264Z,0
2023-02-15T23:16:38.027Z,0
2023-02-15T23:18:17.792Z,0
2023-02-15T23:21:37.318Z,0
2023-02-15T23:23:17.085Z,0
2023-02-15T23:24:56.899Z,0
2023-02-15T23:26:36.636Z,0
2023-02-15T23:28:16.366Z,0
2023-02-15T23:29:56.267Z,0
2023-02-15T23:31:35.906Z,0
2023-02-15T23:33:15.657Z,0
2023-02-15T23:34:55.419Z,0
2023-02-15T23:36:35.192Z,0
2023-02-15T23:38:14.942Z,0
2023-02-15T23:39:54.739Z,0
2023-02-15T23:41:34.562Z,0
2023-02-15T23:43:14.347Z,0
2023-02-15T23:44:54.062Z,0
2023-02-15T23:46:33.759Z,0
2023-02-15T23:48:13.627Z,0
2023-02-15T23:49:53.302Z,0
2023-02-15T23:51:33.075Z,0
2023-02-15T23:53:12.918Z,0
2023-02-15T23:54:52.725Z,0
2023-02-15T23:56:32.353Z,0
2023-02-15T23:58:12.114Z,0
2023-02-15T23:59:51.939Z,0
